Here is the Quick Look data you requested

The Data originates at the National Weather Service, and is made available here by the UAlbany Department of Atmospheric and Environmental Sciences

Surface Observations

KCVG 282152Z 30008KT 280V340 10SM FEW046 BKN300 31/19 A3004 RMK AO2 SLP161
 T03110189=
KCVG 282252Z 31008KT 10SM FEW046 BKN300 31/19 A3004 RMK AO2 SLP160 T03060194=
KCVG 282352Z 28005KT 10SM FEW045 SCT300 29/19 A3003 RMK AO2 SLP159 T02890189
 10311 20289 58004=
KCVG 290052Z 27004KT 9SM SCT300 28/19 A3002 RMK AO2 SLP154 T02780194=
KCVG 290152Z 29003KT 10SM FEW300 26/21 A3003 RMK AO2 SLP156 T02610206=
KCVG 290252Z 24003KT 10SM FEW250 24/21 A3003 RMK AO2 SLP159 T02440206 53001=
KCVG 290352Z 00000KT 10SM CLR 24/21 A3003 RMK AO2 SLP156 T02390206=
KCVG 290452Z 22004KT 10SM CLR 24/21 A3002 RMK AO2 SLP153 T02390206 403110194=
KCVG 290552Z 21003KT 10SM CLR 23/21 A3002 RMK AO2 SLP154 T02330206 10289 20228
 55005=
KCVG 290652Z 00000KT 10SM CLR 22/20 A3001 RMK AO2 SLP152 T02220200=
KCVG 290752Z 20003KT 10SM CLR 22/20 A3001 RMK AO2 SLP150 T02220200=
KCVG 290852Z 27003KT 10SM FEW150 23/21 A3002 RMK AO2 SLP155 T02280206 53001=
KCVG 290952Z 24004KT 10SM OVC200 22/20 A3001 RMK AO2 SLP151 THN OVC T02170200=
KCVG 291052Z 26005KT 6SM BR SCT200 22/21 A3001 RMK AO2 SLP151 T02220206=
KCVG 291152Z 26004KT 5SM BR BKN200 23/21 A3003 RMK AO2 SLP159 T02280211 10239
 20217 53004=
KCVG 291217Z 24005KT 5SM BR BKN023 BKN200 23/21 A3004 RMK AO2 T02330211=
KCVG 291252Z 20004KT 5SM BR SCT025 BKN200 23/21 A3002 RMK AO2 SLP155 T02280211=
KCVG 291352Z 21007KT 6SM BR SCT025 OVC200 24/22 A2999 RMK AO2 SLP142 T02440217=
KCVG 291452Z 25005KT 7SM FEW030 BKN200 27/22 A3001 RMK AO2 SLP150 T02670222
 55008=
KCVG 291552Z 23007KT 7SM FEW040 BKN150 28/23 A3000 RMK AO2 SLP146 T02830228=
KCVG 291652Z 22008KT 8SM FEW025 BKN150 28/22 A2998 RMK AO2 SLP140 T02830217=
KCVG 291752Z 23010KT 8SM FEW025 BKN150 OVC250 30/22 A2995 RMK AO2 SLP132
 T03000222 10306 20228 58017=
KCVG 291852Z 24011KT 220V280 8SM FEW034 FEW150 BKN250 31/22 A2995 RMK AO2
 SLP131 T03110222=
KCVG 291952Z 24012KT 9SM FEW033 BKN250 31/22 A2994 RMK AO2 SLP127 T03110217=
KCVG 292052Z 24012G17KT 7SM FEW032 FEW060 BKN250 31/23 A2993 RMK AO2 SLP123 MDT
 CU SE HAZY T03110228 58008=
KCVG 292152Z 24009KT 7SM FEW031 FEW060 FEW075 OVC250 31/23 A2993 RMK AO2 SLP123
 HAZY T03060228=